createdAt,value
2024-01-15T00:00:22.229Z,98249.61
2024-01-15T00:02:51.113Z,98240.22
2024-01-15T00:05:19.949Z,98235.42
2024-01-15T00:07:48.735Z,98229.11
2024-01-15T00:10:17.497Z,98222.88
2024-01-15T00:12:46.308Z,98215.95
2024-01-15T00:15:15.209Z,98222.30
2024-01-15T00:17:44.077Z,98209.45
2024-01-15T00:20:12.985Z,98201.06
2024-01-15T00:22:41.802Z,98200.96
2024-01-15T00:25:12.574Z,98193.98
2024-01-15T00:27:41.621Z,98198.16
2024-01-15T00:30:10.826Z,98189.30
2024-01-15T00:32:39.766Z,98180.19
2024-01-15T00:35:08.754Z,98183.95
2024-01-15T00:37:37.554Z,98175.16
2024-01-15T00:40:06.880Z,98169.32
2024-01-15T00:42:35.808Z,98165.34
2024-01-15T00:45:06.388Z,98161.77
2024-01-15T00:47:35.960Z,98161.25
2024-01-15T00:50:06.139Z,98151.14
2024-01-15T00:52:35.934Z,98143.33
2024-01-15T00:55:04.893Z,98140.66
2024-01-15T00:57:34.153Z,98134.73
2024-01-15T01:00:05.688Z,98129.37
2024-01-15T01:02:33.391Z,98132.39
2024-01-15T01:05:02.244Z,98131.91
2024-01-15T01:07:30.975Z,98130.61
2024-01-15T01:09:59.762Z,98131.50
2024-01-15T01:12:30.976Z,98135.67
2024-01-15T01:15:00.073Z,98128.28
2024-01-15T01:17:29.072Z,98116.65
2024-01-15T01:19:58.143Z,98125.30
2024-01-15T01:22:27.041Z,98121.70
2024-01-15T01:24:55.804Z,98130.52
2024-01-15T01:27:24.558Z,98133.48
2024-01-15T01:29:54.017Z,98126.83
2024-01-15T01:32:23.721Z,98123.05
2024-01-15T01:34:52.543Z,98119.35
2024-01-15T01:37:21.323Z,98111.64
2024-01-15T01:39:50.152Z,98116.77
2024-01-15T01:42:18.942Z,98114.72
2024-01-15T01:44:47.688Z,98101.47
2024-01-15T01:47:16.526Z,98101.14
2024-01-15T01:49:45.411Z,98102.08
2024-01-15T01:52:14.714Z,98103.06
2024-01-15T01:54:43.630Z,98112.70
2024-01-15T01:57:12.772Z,98117.33
2024-01-15T01:59:42.480Z,98111.30
2024-01-15T02:02:11.576Z,98098.53
2024-01-15T02:04:41.600Z,98100.67
2024-01-15T02:07:11.395Z,98097.19
2024-01-15T02:09:40.354Z,98103.78
2024-01-15T02:12:11.002Z,98104.30
2024-01-15T02:14:41.200Z,98098.21
2024-01-15T02:17:09.963Z,98089.23
2024-01-15T02:19:40.428Z,98084.60
2024-01-15T02:22:09.209Z,98077.11
2024-01-15T02:24:38.020Z,98072.70
2024-01-15T02:27:07.171Z,98075.03
2024-01-15T02:29:37.543Z,98078.20
2024-01-15T02:32:07.117Z,98076.92
2024-01-15T02:34:38.208Z,98074.81
2024-01-15T02:37:07.055Z,98072.58
2024-01-15T02:39:36.970Z,98071.53
2024-01-15T02:42:06.025Z,98065.23
2024-01-15T02:44:37.002Z,98064.14
2024-01-15T02:47:06.365Z,98061.64
2024-01-15T02:49:37.867Z,98060.45
2024-01-15T02:52:06.709Z,98055.56
2024-01-15T02:54:35.645Z,98052.06
2024-01-15T02:57:04.605Z,98045.88
2024-01-15T02:59:33.518Z,98036.55
2024-01-15T03:02:02.278Z,98028.29
2024-01-15T03:04:31.177Z,98027.86
2024-01-15T03:07:01.114Z,98026.92
2024-01-15T03:09:32.034Z,98027.50
2024-01-15T03:12:01.892Z,98027.39
2024-01-15T03:14:32.895Z,98024.43
2024-01-15T03:17:02.184Z,98025.11
2024-01-15T03:19:31.894Z,98020.86
2024-01-15T03:22:01.803Z,98026.34
2024-01-15T03:24:30.618Z,98013.02
2024-01-15T03:26:59.420Z,98013.95
2024-01-15T03:29:28.473Z,98013.85
2024-01-15T03:31:58.351Z,98014.40
2024-01-15T03:34:27.177Z,98018.48
2024-01-15T03:36:56.012Z,98004.33
2024-01-15T03:39:24.905Z,98007.30
2024-01-15T03:41:53.725Z,98007.48
2024-01-15T03:44:22.513Z,98004.05
2024-01-15T03:46:51.340Z,97999.41
2024-01-15T03:49:20.315Z,98002.97
2024-01-15T03:51:49.281Z,98005.73
2024-01-15T03:54:20.634Z,97999.84
2024-01-15T03:56:50.353Z,97990.92
2024-01-15T03:59:19.220Z,97988.17
2024-01-15T04:01:55.022Z,97985.50
2024-01-15T04:04:24.978Z,97981.63
2024-01-15T04:06:53.876Z,97983.14
2024-01-15T04:09:22.706Z,97972.77
2024-01-15T04:11:51.486Z,97967.95
2024-01-15T04:14:21.281Z,97967.70
2024-01-15T04:16:51.077Z,97967.55
2024-01-15T04:19:19.909Z,97972.98
2024-01-15T04:21:48.900Z,97974.17
2024-01-15T04:24:19.252Z,97970.92
2024-01-15T04:26:48.163Z,97963.91
2024-01-15T04:29:16.973Z,97956.95
2024-01-15T04:31:45.904Z,97952.11
2024-01-15T04:34:14.804Z,97951.13
2024-01-15T04:36:43.990Z,97941.55
2024-01-15T04:39:13.962Z,97947.33
2024-01-15T04:41:42.754Z,97934.41
2024-01-15T04:44:11.650Z,97929.20
2024-01-15T04:46:40.559Z,97917.59
2024-01-15T04:49:09.447Z,97924.32
2024-01-15T04:51:39.602Z,97928.84
2024-01-15T04:54:08.504Z,97929.11
2024-01-15T04:56:40.785Z,97929.20
2024-01-15T04:59:09.512Z,97924.40
2024-01-15T05:01:38.396Z,97924.95
2024-01-15T05:04:08.289Z,97930.53
2024-01-15T05:06:38.062Z,97923.99
2024-01-15T05:09:06.956Z,97925.19
2024-01-15T05:11:35.740Z,97929.47
2024-01-15T05:14:04.562Z,97939.31
2024-01-15T05:16:33.332Z,97941.64
2024-01-15T05:19:02.211Z,97940.83
2024-01-15T05:21:32.069Z,97939.23
2024-01-15T05:24:00.804Z,97940.58
2024-01-15T05:26:29.602Z,97943.87
2024-01-15T05:28:59.288Z,97937.79
2024-01-15T05:31:28.227Z,97947.88
2024-01-15T05:33:57.450Z,97939.89
2024-01-15T05:36:26.421Z,97934.93
2024-01-15T05:38:55.352Z,97933.70
2024-01-15T05:41:25.171Z,97938.86
2024-01-15T05:43:53.902Z,97934.09
2024-01-15T05:46:23.770Z,97940.73
2024-01-15T05:48:52.618Z,97951.15
2024-01-15T05:51:21.570Z,97943.55
2024-01-15T05:53:52.436Z,97941.39
2024-01-15T05:56:20.877Z,97943.27
2024-01-15T05:58:49.645Z,97946.30
2024-01-15T06:01:18.519Z,97953.43
2024-01-15T06:03:47.490Z,97949.78
2024-01-15T06:06:16.500Z,97947.33
2024-01-15T06:08:45.428Z,97946.34
2024-01-15T06:11:15.452Z,97943.89
2024-01-15T06:13:48.301Z,97948.27
2024-01-15T06:16:17.933Z,97951.59
2024-01-15T06:18:47.149Z,97950.77
2024-01-15T06:21:17.314Z,97949.03
2024-01-15T06:23:46.316Z,97949.18
2024-01-15T06:26:15.106Z,97959.19
2024-01-15T06:28:43.885Z,97957.94
2024-01-15T06:31:12.755Z,97958.08
2024-01-15T06:33:42.128Z,97963.72
2024-01-15T06:36:12.039Z,97965.37
2024-01-15T06:38:43.208Z,97965.27
2024-01-15T06:41:12.039Z,97962.27
2024-01-15T06:43:41.949Z,97972.87
2024-01-15T06:46:10.943Z,97979.41
2024-01-15T06:48:39.911Z,97986.98
2024-01-15T06:51:08.901Z,97992.72
2024-01-15T06:53:37.817Z,98000.06
2024-01-15T06:56:06.657Z,97988.30
2024-01-15T06:58:35.391Z,97992.20
2024-01-15T07:01:04.561Z,97995.38
2024-01-15T07:03:33.732Z,97992.88
2024-01-15T07:06:03.609Z,97995.63
2024-01-15T07:08:34.461Z,97989.60
2024-01-15T07:11:04.775Z,97991.74
2024-01-15T07:13:34.973Z,97996.17
2024-01-15T07:16:06.677Z,97997.05
2024-01-15T07:18:35.609Z,97993.94
2024-01-15T07:21:05.415Z,97997.93
2024-01-15T07:23:34.340Z,98001.58
2024-01-15T07:26:03.384Z,98001.30
2024-01-15T07:28:33.353Z,98005.59
2024-01-15T07:31:03.791Z,98011.72
2024-01-15T07:33:32.896Z,98008.74
2024-01-15T07:36:03.911Z,97996.77
2024-01-15T07:38:32.786Z,98004.84
2024-01-15T07:41:03.691Z,98002.28
2024-01-15T07:43:32.597Z,97990.56
2024-01-15T07:46:01.418Z,97988.42
2024-01-15T07:48:30.355Z,98004.16
2024-01-15T07:50:59.326Z,97994.83
2024-01-15T07:53:29.066Z,97985.72
2024-01-15T07:55:58.053Z,97978.73
2024-01-15T07:58:27.025Z,97978.44
2024-01-15T08:00:55.978Z,97977.72
2024-01-15T08:03:24.926Z,97974.70
2024-01-15T08:05:57.868Z,97963.53
2024-01-15T08:08:27.913Z,97971.27
2024-01-15T08:10:56.875Z,97971.44
2024-01-15T08:13:27.229Z,97966.97
2024-01-15T08:15:56.221Z,97963.97
2024-01-15T08:18:26.684Z,97971.81
2024-01-15T08:20:55.670Z,97968.05
2024-01-15T08:23:24.532Z,97976.16
2024-01-15T08:25:53.437Z,97985.42
2024-01-15T08:28:22.386Z,97972.43
2024-01-15T08:30:53.115Z,97977.86
2024-01-15T08:33:22.742Z,97978.22
2024-01-15T08:35:51.769Z,97987.02
2024-01-15T08:38:21.377Z,97984.38
2024-01-15T08:40:51.179Z,97981.44
2024-01-15T08:43:19.936Z,97985.91
2024-01-15T08:45:49.784Z,97988.02
2024-01-15T08:48:19.108Z,97975.48
2024-01-15T08:50:48.790Z,97984.47
2024-01-15T08:53:19.491Z,97979.39
2024-01-15T08:55:48.913Z,97984.24
2024-01-15T08:58:17.920Z,97980.22
2024-01-15T09:00:46.815Z,97980.61
2024-01-15T09:03:16.941Z,97973.50
2024-01-15T09:05:45.899Z,97983.59
2024-01-15T09:08:14.914Z,97973.62
2024-01-15T09:10:43.765Z,97987.48
2024-01-15T09:13:12.846Z,97991.81
2024-01-15T09:15:41.967Z,97982.18
2024-01-15T09:18:11.961Z,97971.38
2024-01-15T09:20:42.946Z,97975.86
2024-01-15T09:23:11.813Z,97972.41
2024-01-15T09:25:40.649Z,97983.41
2024-01-15T09:28:09.435Z,97980.91
2024-01-15T09:30:38.251Z,97971.02
2024-01-15T09:33:07.359Z,97975.86
2024-01-15T09:35:36.336Z,97983.69
2024-01-15T09:38:07.104Z,97988.33
2024-01-15T09:40:35.947Z,97992.38
2024-01-15T09:43:05.048Z,97989.50
2024-01-15T09:45:34.244Z,97991.91
2024-01-15T09:48:03.639Z,97988.62
2024-01-15T09:50:32.744Z,97997.23
2024-01-15T09:53:01.957Z,98008.83
2024-01-15T09:55:34.173Z,97994.84
2024-01-15T09:58:03.604Z,97996.19
2024-01-15T10:00:32.448Z,97994.89
2024-01-15T10:03:01.453Z,97989.07
2024-01-15T10:05:31.327Z,97987.69
2024-01-15T10:08:01.610Z,97986.01
2024-01-15T10:10:30.399Z,97986.59
2024-01-15T10:13:02.097Z,97991.70
2024-01-15T10:15:31.048Z,97974.25
2024-01-15T10:18:00.752Z,97986.33
2024-01-15T10:20:29.548Z,97988.22
2024-01-15T10:22:58.616Z,97988.81
2024-01-15T10:25:27.512Z,97990.70
2024-01-15T10:28:02.447Z,97979.81
2024-01-15T10:30:31.986Z,97981.47
2024-01-15T10:33:04.921Z,97981.98
2024-01-15T10:35:35.979Z,97982.97
2024-01-15T10:38:05.594Z,97952.23
2024-01-15T10:40:34.682Z,97969.69
2024-01-15T10:43:04.232Z,97970.88
2024-01-15T10:45:33.072Z,97964.08
2024-01-15T10:48:06.227Z,97965.77
2024-01-15T10:50:35.232Z,97959.60
2024-01-15T10:53:04.739Z,97959.27
2024-01-15T10:55:37.029Z,97957.25
2024-01-15T10:58:05.967Z,97962.77
2024-01-15T11:00:35.913Z,97963.67
2024-01-15T11:03:06.818Z,97975.84
2024-01-15T11:05:36.213Z,97981.11
2024-01-15T11:08:08.108Z,97971.16
2024-01-15T11:10:42.477Z,97977.43
2024-01-15T11:13:18.813Z,97981.17
2024-01-15T11:15:58.110Z,97983.50
2024-01-15T11:18:28.636Z,97989.21
2024-01-15T11:21:02.019Z,97974.17
2024-01-15T11:23:52.509Z,97977.86
2024-01-15T11:26:41.417Z,97978.59
2024-01-15T11:29:11.914Z,97970.45
2024-01-15T11:31:42.343Z,97974.91
2024-01-15T11:34:13.355Z,97974.00
2024-01-15T11:36:56.856Z,97980.23
2024-01-15T11:39:30.317Z,97976.38
2024-01-15T11:41:59.974Z,97968.61
2024-01-15T11:44:29.000Z,97967.92
2024-01-15T11:47:08.030Z,97971.98
2024-01-15T11:49:54.980Z,97967.83
2024-01-15T11:52:24.905Z,97978.20
2024-01-15T11:55:07.662Z,97985.56
2024-01-15T11:57:40.927Z,97989.27
2024-01-15T12:00:11.868Z,97983.09
2024-01-15T12:02:43.020Z,97984.87
2024-01-15T12:05:14.099Z,97975.25
2024-01-15T12:07:43.844Z,97967.08
2024-01-15T12:10:15.349Z,97979.29
2024-01-15T12:12:47.995Z,97986.64
2024-01-15T12:15:17.350Z,97988.55
2024-01-15T12:17:48.720Z,97985.12
2024-01-15T12:20:17.777Z,97978.94
2024-01-15T12:22:56.515Z,97986.66
2024-01-15T12:25:17.482Z,97975.16
2024-01-15T12:27:47.366Z,97967.55
2024-01-15T12:30:16.500Z,97978.94
2024-01-15T12:32:45.400Z,97964.95
2024-01-15T12:35:14.603Z,97966.73
2024-01-15T12:37:45.344Z,97970.52
2024-01-15T12:40:15.104Z,97968.85
2024-01-15T12:42:44.866Z,97970.50
2024-01-15T12:45:16.952Z,97965.89
2024-01-15T12:47:46.225Z,97968.84
2024-01-15T12:50:19.756Z,97972.65
2024-01-15T12:52:46.059Z,97971.47
2024-01-15T12:55:16.261Z,97970.27
2024-01-15T12:57:46.808Z,97969.46
2024-01-15T13:00:16.741Z,97957.94
2024-01-15T13:02:45.799Z,97969.32
2024-01-15T13:05:15.779Z,97970.61
2024-01-15T13:07:45.318Z,97972.39
2024-01-15T13:10:14.322Z,97964.32
2024-01-15T13:12:43.260Z,97962.54
2024-01-15T13:15:15.700Z,97970.61
2024-01-15T13:17:45.643Z,97968.13
2024-01-15T13:20:14.650Z,97964.91
2024-01-15T13:22:45.681Z,97958.74
2024-01-15T13:25:17.547Z,97961.25
2024-01-15T13:27:46.510Z,97963.47
2024-01-15T13:30:15.602Z,97952.70
2024-01-15T13:32:44.450Z,97960.89
2024-01-15T13:35:15.772Z,97962.20
2024-01-15T13:37:44.534Z,97963.50
2024-01-15T13:40:14.995Z,97957.09
2024-01-15T13:42:45.722Z,97963.96
2024-01-15T13:45:18.012Z,97962.42
2024-01-15T13:47:46.919Z,97970.61
2024-01-15T13:50:15.805Z,97965.98
2024-01-15T13:52:44.571Z,97966.09
2024-01-15T13:55:14.268Z,97971.21
2024-01-15T13:57:43.273Z,97967.16
2024-01-15T14:00:13.739Z,97971.20
2024-01-15T14:02:43.044Z,97962.78
2024-01-15T14:05:13.981Z,97967.53
2024-01-15T14:07:44.300Z,97966.09
2024-01-15T14:10:13.073Z,97969.66
2024-01-15T14:12:42.096Z,97970.01
2024-01-15T14:15:10.936Z,97972.37
2024-01-15T14:17:39.916Z,97969.29
2024-01-15T14:20:10.971Z,97973.58
2024-01-15T14:22:39.924Z,97970.02
2024-01-15T14:25:10.725Z,97974.26
2024-01-15T14:27:39.497Z,97975.22
2024-01-15T14:30:09.842Z,97981.47
2024-01-15T14:32:38.801Z,97970.48
2024-01-15T14:35:09.380Z,97974.39
2024-01-15T14:37:39.766Z,97972.37
2024-01-15T14:40:09.864Z,97976.51
2024-01-15T14:42:38.741Z,97981.87
2024-01-15T14:45:11.632Z,97982.80
2024-01-15T14:47:40.430Z,97972.23
2024-01-15T14:50:11.225Z,97979.02
2024-01-15T14:52:42.656Z,97976.05
2024-01-15T14:55:11.472Z,97989.54
2024-01-15T14:57:40.371Z,97987.56
2024-01-15T15:00:10.804Z,97983.14
2024-01-15T15:02:39.702Z,97988.75
2024-01-15T15:05:09.019Z,97984.01
2024-01-15T15:07:38.476Z,97987.05
2024-01-15T15:10:07.904Z,97994.90
2024-01-15T15:12:37.859Z,97992.75
2024-01-15T15:15:10.260Z,98001.66
2024-01-15T15:17:39.815Z,97995.34
2024-01-15T15:20:09.133Z,98002.35
2024-01-15T15:22:38.158Z,98005.19
2024-01-15T15:25:08.684Z,98007.20
2024-01-15T15:27:37.459Z,98005.59
2024-01-15T15:30:06.790Z,98005.09
2024-01-15T15:32:35.660Z,98008.06
2024-01-15T15:35:07.711Z,98008.02
2024-01-15T15:37:37.171Z,98014.76
2024-01-15T15:40:08.255Z,98008.88
2024-01-15T15:42:37.135Z,98021.03
2024-01-15T15:45:07.518Z,98019.16
2024-01-15T15:47:37.404Z,98038.22
2024-01-15T15:50:06.816Z,98041.66
2024-01-15T15:52:35.858Z,98045.77
2024-01-15T15:55:05.437Z,98046.38
2024-01-15T15:57:34.292Z,98042.08
2024-01-15T16:00:03.423Z,98041.75
2024-01-15T16:02:35.763Z,98058.80
2024-01-15T16:05:06.584Z,98052.11
2024-01-15T16:07:35.366Z,98054.83
2024-01-15T16:10:05.954Z,98053.05
2024-01-15T16:12:35.555Z,98057.10
2024-01-15T16:15:04.700Z,98062.64
2024-01-15T16:23:16.237Z,98059.89
2024-01-15T16:23:28.870Z,98065.86
2024-01-15T16:23:42.830Z,98072.87
2024-01-15T16:25:07.232Z,98081.56
2024-01-15T16:27:36.732Z,98071.62
2024-01-15T16:30:12.359Z,98070.25
2024-01-15T16:32:38.145Z,98083.38
2024-01-15T16:35:08.465Z,98082.00
2024-01-15T16:37:38.286Z,98080.80
2024-01-15T16:40:08.076Z,98082.66
2024-01-15T16:42:37.018Z,98082.77
2024-01-15T16:45:06.199Z,98085.91
2024-01-15T16:47:35.094Z,98076.36
2024-01-15T16:50:04.980Z,98092.89
2024-01-15T16:52:33.803Z,98085.50
2024-01-15T16:55:03.920Z,98099.05
2024-01-15T16:57:32.671Z,98102.32
2024-01-15T17:00:01.433Z,98095.17
2024-01-15T17:02:30.266Z,98101.58
2024-01-15T17:04:59.101Z,98111.00
2024-01-15T17:07:28.480Z,98101.73
2024-01-15T17:09:57.477Z,98096.84
2024-01-15T17:12:26.485Z,98114.36
2024-01-15T17:14:55.236Z,98111.36
2024-01-15T17:17:24.093Z,98118.34
2024-01-15T17:19:54.915Z,98119.35
2024-01-15T17:22:23.764Z,98111.94
2024-01-15T17:24:53.523Z,98124.72
2024-01-15T17:27:22.292Z,98116.89
2024-01-15T17:29:52.905Z,98125.67
2024-01-15T17:32:21.829Z,98120.36
2024-01-15T17:34:50.655Z,98123.58
2024-01-15T17:37:20.164Z,98131.19
2024-01-15T17:39:49.942Z,98132.80
2024-01-15T17:42:19.102Z,98142.29
2024-01-15T17:44:48.374Z,98144.48
2024-01-15T17:47:17.217Z,98147.23
2024-01-15T17:49:45.944Z,98140.22
2024-01-15T17:52:14.691Z,98145.66
2024-01-15T17:54:43.812Z,98138.74
2024-01-15T17:57:13.597Z,98144.42
2024-01-15T17:59:42.401Z,98154.58
2024-01-15T18:02:12.576Z,98149.80
2024-01-15T18:04:41.688Z,98149.78
2024-01-15T18:07:10.802Z,98162.91
2024-01-15T18:09:39.660Z,98154.35
2024-01-15T18:12:11.619Z,98156.75
2024-01-15T18:14:40.521Z,98160.91
2024-01-15T18:17:10.261Z,98174.14
2024-01-15T18:19:39.151Z,98169.55
2024-01-15T18:22:08.169Z,98173.30
2024-01-15T18:24:37.088Z,98175.75
2024-01-15T18:27:06.140Z,98177.05
2024-01-15T18:29:35.251Z,98175.84
2024-01-15T18:32:04.422Z,98173.88
2024-01-15T18:34:33.728Z,98174.70
2024-01-15T18:37:02.757Z,98185.55
2024-01-15T18:39:31.587Z,98178.71
2024-01-15T18:42:00.434Z,98184.20
2024-01-15T18:44:30.095Z,98179.56
2024-01-15T18:46:58.961Z,98185.03
2024-01-15T18:49:28.302Z,98179.92
2024-01-15T18:51:57.758Z,98190.17
2024-01-15T18:54:28.104Z,98187.41
2024-01-15T18:56:56.892Z,98191.95
2024-01-15T18:59:25.847Z,98193.51
2024-01-15T19:01:54.665Z,98187.27
2024-01-15T19:04:23.526Z,98190.27
2024-01-15T19:06:53.076Z,98191.95
2024-01-15T19:09:22.736Z,98200.16
2024-01-15T19:11:55.419Z,98193.81
2024-01-15T19:14:25.154Z,98197.52
2024-01-15T19:16:53.983Z,98201.69
2024-01-15T19:19:23.752Z,98207.09
2024-01-15T19:21:52.477Z,98209.09
2024-01-15T19:24:22.194Z,98211.83
2024-01-15T19:26:53.997Z,98209.28
2024-01-15T19:29:22.834Z,98213.66
2024-01-15T19:31:51.896Z,98215.42
2024-01-15T19:34:21.211Z,98225.20
2024-01-15T19:36:49.980Z,98221.10
2024-01-15T19:39:22.635Z,98218.16
2024-01-15T19:41:51.400Z,98225.23
2024-01-15T19:44:21.083Z,98230.22
2024-01-15T19:46:49.864Z,98231.22
2024-01-15T19:49:18.623Z,98235.98
2024-01-15T19:51:47.881Z,98234.92
2024-01-15T19:54:17.129Z,98247.54
2024-01-15T19:56:46.046Z,98236.76
2024-01-15T19:59:15.032Z,98245.40
2024-01-15T20:01:43.755Z,98247.67
2024-01-15T20:04:12.611Z,98257.75
2024-01-15T20:06:41.374Z,98259.52
2024-01-15T20:09:11.118Z,98261.61
2024-01-15T20:11:41.851Z,98268.64
2024-01-15T20:14:10.699Z,98273.22
2024-01-15T20:16:40.082Z,98281.13
2024-01-15T20:19:09.053Z,98286.93
2024-01-15T20:21:37.941Z,98280.09
2024-01-15T20:24:06.855Z,98287.42
2024-01-15T20:26:35.620Z,98293.63
2024-01-15T20:29:04.671Z,98293.83
2024-01-15T20:31:33.502Z,98293.27
2024-01-15T20:34:02.444Z,98305.29
2024-01-15T20:36:32.503Z,98315.84
2024-01-15T20:39:01.259Z,98314.73
2024-01-15T20:41:30.113Z,98326.20
2024-01-15T20:43:59.046Z,98319.58
2024-01-15T20:46:28.589Z,98327.37
2024-01-15T20:48:57.673Z,98317.08
2024-01-15T20:51:26.598Z,98325.33
2024-01-15T20:53:55.404Z,98324.78
2024-01-15T20:56:25.165Z,98328.98
2024-01-15T20:58:53.968Z,98336.23
2024-01-15T21:01:22.823Z,98338.83
2024-01-15T21:03:51.753Z,98344.80
2024-01-15T21:06:21.866Z,98348.12
2024-01-15T21:08:51.093Z,98334.84
2024-01-15T21:11:20.919Z,98341.58
2024-01-15T21:13:51.639Z,98343.64
2024-01-15T21:16:21.649Z,98339.91
2024-01-15T21:18:52.530Z,98339.69
2024-01-15T21:21:21.310Z,98340.10
2024-01-15T21:23:50.277Z,98347.55
2024-01-15T21:26:19.140Z,98350.23
2024-01-15T21:28:49.028Z,98347.37
2024-01-15T21:31:18.939Z,98348.56
2024-01-15T21:33:47.851Z,98354.33
2024-01-15T21:36:17.393Z,98360.77
2024-01-15T21:38:46.242Z,98367.28
2024-01-15T21:41:15.052Z,98363.89
2024-01-15T21:43:43.917Z,98362.64
2024-01-15T21:46:12.699Z,98371.25
2024-01-15T21:48:42.680Z,98376.95
2024-01-15T21:51:11.811Z,98381.94
2024-01-15T21:53:40.723Z,98384.24
2024-01-15T21:56:12.581Z,98386.53
2024-01-15T21:58:41.622Z,98386.66
2024-01-15T22:01:10.498Z,98388.98
2024-01-15T22:03:39.376Z,98388.98
2024-01-15T22:06:10.229Z,98389.48
2024-01-15T22:08:39.671Z,98392.94
2024-01-15T22:11:09.419Z,98389.97
2024-01-15T22:13:38.343Z,98387.99
2024-01-15T22:16:07.271Z,98392.66
2024-01-15T22:18:38.974Z,98389.30
2024-01-15T22:21:08.319Z,98396.37
2024-01-15T22:23:37.154Z,98398.97
2024-01-15T22:26:06.170Z,98398.24
2024-01-15T22:28:35.177Z,98397.31
2024-01-15T22:31:03.911Z,98397.53
2024-01-15T22:33:32.828Z,98403.34
2024-01-15T22:36:01.707Z,98401.44
2024-01-15T22:38:32.156Z,98405.25
2024-01-15T22:41:01.350Z,98405.06
2024-01-15T22:43:30.184Z,98410.56
2024-01-15T22:45:59.086Z,98414.78
2024-01-15T22:48:28.292Z,98406.92
2024-01-15T22:50:57.203Z,98417.42
2024-01-15T22:53:27.182Z,98415.11
2024-01-15T22:55:57.515Z,98413.02
2024-01-15T22:58:26.312Z,98414.59
2024-01-15T23:00:55.949Z,98416.35
2024-01-15T23:03:24.899Z,98412.45
2024-01-15T23:05:54.048Z,98412.55
2024-01-15T23:08:24.003Z,98420.63
2024-01-15T23:10:52.870Z,98426.45
2024-01-15T23:13:21.647Z,98423.02
2024-01-15T23:15:50.380Z,98426.56
2024-01-15T23:18:19.323Z,98432.42
2024-01-15T23:20:48.181Z,98443.01
2024-01-15T23:23:17.952Z,98445.43
2024-01-15T23:25:46.687Z,98440.29
2024-01-15T23:28:16.450Z,98442.73
2024-01-15T23:30:45.604Z,98450.53
2024-01-15T23:33:14.573Z,98443.30
2024-01-15T23:35:44.424Z,98448.23
2024-01-15T23:38:13.618Z,98442.56
2024-01-15T23:40:43.400Z,98442.39
2024-01-15T23:43:12.147Z,98443.56
2024-01-15T23:45:42.450Z,98444.70
2024-01-15T23:48:12.171Z,98440.97
2024-01-15T23:50:41.093Z,98438.64
2024-01-15T23:53:10.858Z,98440.15
2024-01-15T23:55:44.314Z,98438.67
2024-01-15T23:58:13.057Z,98450.45
